sensor_id;sensor_type;location;lat;lon;timestamp;P1;durP1;ratioP1;P2;durP2;ratioP2
30896;SDS011;64229;52.246;21.054;2023-03-11T05:16:36;23.05;;;10.85;;
30896;SDS011;64229;52.246;21.054;2023-03-11T05:19:01;21.25;;;11.65;;
30896;SDS011;64229;52.246;21.054;2023-03-11T05:21:46;22.13;;;11.10;;
30896;SDS011;64229;52.246;21.054;2023-03-11T05:24:12;23.15;;;11.13;;
30896;SDS011;64229;52.246;21.054;2023-03-11T05:26:37;27.00;;;12.10;;
30896;SDS011;64229;52.246;21.054;2023-03-11T05:29:02;23.50;;;10.77;;
30896;SDS011;64229;52.246;21.054;2023-03-11T05:31:28;25.48;;;12.15;;
30896;SDS011;64229;52.246;21.054;2023-03-11T05:33:53;26.17;;;12.00;;
30896;SDS011;64229;52.246;21.054;2023-03-11T05:36:19;29.65;;;12.75;;
30896;SDS011;64229;52.246;21.054;2023-03-11T05:38:44;25.55;;;11.98;;
30896;SDS011;64229;52.246;21.054;2023-03-11T05:41:09;25.70;;;12.20;;
30896;SDS011;64229;52.246;21.054;2023-03-11T05:43:35;25.27;;;11.60;;
30896;SDS011;64229;52.246;21.054;2023-03-11T05:46:00;25.55;;;11.23;;
30896;SDS011;64229;52.246;21.054;2023-03-11T05:48:26;24.02;;;10.57;;
30896;SDS011;64229;52.246;21.054;2023-03-11T05:50:51;21.30;;;10.05;;
30896;SDS011;64229;52.246;21.054;2023-03-11T05:53:16;24.67;;;10.55;;
30896;SDS011;64229;52.246;21.054;2023-03-11T05:55:42;19.48;;;9.88;;
30896;SDS011;64229;52.246;21.054;2023-03-11T05:58:07;22.15;;;10.30;;
30896;SDS011;64229;52.246;21.054;2023-03-11T06:00:33;22.73;;;10.40;;
30896;SDS011;64229;52.246;21.054;2023-03-11T06:02:58;24.35;;;10.23;;
30896;SDS011;64229;52.246;21.054;2023-03-11T06:05:23;23.10;;;10.60;;
30896;SDS011;64229;52.246;21.054;2023-03-11T06:07:49;21.65;;;9.60;;
30896;SDS011;64229;52.246;21.054;2023-03-11T06:10:14;20.98;;;10.20;;
30896;SDS011;64229;52.246;21.054;2023-03-11T06:12:40;17.63;;;8.95;;
30896;SDS011;64229;52.246;21.054;2023-03-11T06:15:05;17.98;;;9.38;;
30896;SDS011;64229;52.246;21.054;2023-03-11T06:17:31;20.77;;;9.10;;
30896;SDS011;64229;52.246;21.054;2023-03-11T06:19:57;14.90;;;9.13;;
30896;SDS011;64229;52.246;21.054;2023-03-11T06:22:22;17.30;;;7.10;;
30896;SDS011;64229;52.246;21.054;2023-03-11T06:24:48;15.00;;;8.23;;
30896;SDS011;64229;52.246;21.054;2023-03-11T06:27:13;14.48;;;7.40;;
30896;SDS011;64229;52.246;21.054;2023-03-11T06:29:39;14.80;;;6.78;;
30896;SDS011;64229;52.246;21.054;2023-03-11T06:32:05;11.13;;;6.30;;
30896;SDS011;64229;52.246;21.054;2023-03-11T06:34:30;13.30;;;6.13;;
30896;SDS011;64229;52.246;21.054;2023-03-11T06:36:56;12.43;;;6.00;;
30896;SDS011;64229;52.246;21.054;2023-03-11T06:39:23;11.50;;;5.47;;
30896;SDS011;64229;52.246;21.054;2023-03-11T06:41:48;10.85;;;6.03;;
30896;SDS011;64229;52.246;21.054;2023-03-11T06:44:14;9.80;;;5.10;;
30896;SDS011;64229;52.246;21.054;2023-03-11T06:46:39;14.18;;;6.32;;
30896;SDS011;64229;52.246;21.054;2023-03-11T06:49:05;11.85;;;5.50;;
30896;SDS011;64229;52.246;21.054;2023-03-11T06:51:30;9.57;;;5.22;;
30896;SDS011;64229;52.246;21.054;2023-03-11T06:53:55;9.15;;;4.95;;
30896;SDS011;64229;52.246;21.054;2023-03-11T06:56:21;9.68;;;5.18;;
30896;SDS011;64229;52.246;21.054;2023-03-11T06:58:48;11.85;;;6.20;;
30896;SDS011;64229;52.246;21.054;2023-03-11T07:01:17;12.15;;;6.05;;
30896;SDS011;64229;52.246;21.054;2023-03-11T07:03:45;11.40;;;6.18;;
30896;SDS011;64229;52.246;21.054;2023-03-11T07:06:16;11.02;;;5.95;;
30896;SDS011;64229;52.246;21.054;2023-03-11T07:08:43;9.98;;;5.82;;
30896;SDS011;64229;52.246;21.054;2023-03-11T07:11:29;10.85;;;6.07;;
30896;SDS011;64229;52.246;21.054;2023-03-11T07:13:54;9.85;;;5.45;;
30896;SDS011;64229;52.246;21.054;2023-03-11T07:16:21;11.77;;;5.78;;
30896;SDS011;64229;52.246;21.054;2023-03-11T07:18:48;12.57;;;6.38;;
30896;SDS011;64229;52.246;21.054;2023-03-11T07:21:16;10.07;;;5.90;;
30896;SDS011;64229;52.246;21.054;2023-03-11T07:23:46;13.15;;;6.60;;
30896;SDS011;64229;52.246;21.054;2023-03-11T07:26:14;13.77;;;6.78;;
30896;SDS011;64229;52.246;21.054;2023-03-11T07:28:40;11.77;;;7.10;;
30896;SDS011;64229;52.246;21.054;2023-03-11T07:31:16;12.00;;;6.63;;
30896;SDS011;64229;52.246;21.054;2023-03-11T07:33:50;12.52;;;6.85;;
30896;SDS011;64229;52.246;21.054;2023-03-11T07:36:17;15.02;;;8.13;;
30896;SDS011;64229;52.246;21.054;2023-03-11T07:38:45;14.05;;;7.15;;
30896;SDS011;64229;52.246;21.054;2023-03-11T07:41:11;14.05;;;7.05;;
30896;SDS011;64229;52.246;21.054;2023-03-11T07:43:38;16.33;;;7.72;;
30896;SDS011;64229;52.246;21.054;2023-03-11T07:46:05;13.18;;;7.03;;
30896;SDS011;64229;52.246;21.054;2023-03-11T07:48:32;14.95;;;8.00;;
30896;SDS011;64229;52.246;21.054;2023-03-11T07:51:02;14.43;;;8.15;;
30896;SDS011;64229;52.246;21.054;2023-03-11T07:53:29;14.45;;;9.00;;
30896;SDS011;64229;52.246;21.054;2023-03-11T07:55:56;14.77;;;8.15;;
30896;SDS011;64229;52.246;21.054;2023-03-11T07:58:22;15.98;;;8.38;;
30896;SDS011;64229;52.246;21.054;2023-03-11T08:00:48;12.35;;;8.05;;
30896;SDS011;64229;52.246;21.054;2023-03-11T08:03:15;15.15;;;8.65;;
30896;SDS011;64229;52.246;21.054;2023-03-11T08:05:41;17.45;;;9.63;;
30896;SDS011;64229;52.246;21.054;2023-03-11T08:08:06;16.98;;;9.43;;
30896;SDS011;64229;52.246;21.054;2023-03-11T08:10:32;15.57;;;9.45;;
30896;SDS011;64229;52.246;21.054;2023-03-11T08:13:00;14.60;;;9.07;;
30896;SDS011;64229;52.246;21.054;2023-03-11T08:15:26;16.95;;;9.95;;
30896;SDS011;64229;52.246;21.054;2023-03-11T08:17:51;17.70;;;9.50;;
30896;SDS011;64229;52.246;21.054;2023-03-11T08:20:16;16.35;;;9.95;;
30896;SDS011;64229;52.246;21.054;2023-03-11T08:22:42;15.65;;;9.65;;
30896;SDS011;64229;52.246;21.054;2023-03-11T08:25:07;15.18;;;9.02;;
30896;SDS011;64229;52.246;21.054;2023-03-11T08:27:33;14.05;;;8.73;;
30896;SDS011;64229;52.246;21.054;2023-03-11T08:29:58;14.98;;;9.05;;
30896;SDS011;64229;52.246;21.054;2023-03-11T08:32:24;16.67;;;9.30;;
30896;SDS011;64229;52.246;21.054;2023-03-11T08:34:49;14.75;;;9.95;;
30896;SDS011;64229;52.246;21.054;2023-03-11T08:37:14;15.10;;;8.90;;
30896;SDS011;64229;52.246;21.054;2023-03-11T08:39:40;14.13;;;8.40;;
30896;SDS011;64229;52.246;21.054;2023-03-11T08:42:05;13.52;;;8.25;;
30896;SDS011;64229;52.246;21.054;2023-03-11T08:44:31;14.95;;;8.80;;
30896;SDS011;64229;52.246;21.054;2023-03-11T08:46:56;13.90;;;8.70;;
30896;SDS011;64229;52.246;21.054;2023-03-11T08:49:22;14.13;;;8.63;;
30896;SDS011;64229;52.246;21.054;2023-03-11T08:51:47;14.38;;;8.70;;
30896;SDS011;64229;52.246;21.054;2023-03-11T08:54:12;16.23;;;9.07;;
30896;SDS011;64229;52.246;21.054;2023-03-11T08:56:38;16.45;;;9.68;;
30896;SDS011;64229;52.246;21.054;2023-03-11T08:59:04;14.95;;;9.15;;
30896;SDS011;64229;52.246;21.054;2023-03-11T09:01:29;15.50;;;9.98;;
30896;SDS011;64229;52.246;21.054;2023-03-11T09:03:55;18.75;;;10.55;;
30896;SDS011;64229;52.246;21.054;2023-03-11T09:06:20;19.55;;;10.02;;
30896;SDS011;64229;52.246;21.054;2023-03-11T09:08:46;18.23;;;10.10;;
30896;SDS011;64229;52.246;21.054;2023-03-11T09:11:12;17.38;;;9.88;;
30896;SDS011;64229;52.246;21.054;2023-03-11T09:13:39;22.23;;;11.45;;
30896;SDS011;64229;52.246;21.054;2023-03-11T09:16:07;17.88;;;10.63;;
30896;SDS011;64229;52.246;21.054;2023-03-11T09:18:36;21.95;;;11.60;;
30896;SDS011;64229;52.246;21.054;2023-03-11T09:21:01;18.08;;;10.65;;
30896;SDS011;64229;52.246;21.054;2023-03-11T09:23:26;20.88;;;11.10;;
30896;SDS011;64229;52.246;21.054;2023-03-11T09:25:52;17.10;;;10.50;;
30896;SDS011;64229;52.246;21.054;2023-03-11T09:28:17;19.08;;;10.30;;
30896;SDS011;64229;52.246;21.054;2023-03-11T09:30:43;22.45;;;11.25;;
30896;SDS011;64229;52.246;21.054;2023-03-11T09:33:08;20.58;;;10.57;;
30896;SDS011;64229;52.246;21.054;2023-03-11T09:35:34;27.42;;;12.60;;
30896;SDS011;64229;52.246;21.054;2023-03-11T09:37:59;23.02;;;12.38;;
30896;SDS011;64229;52.246;21.054;2023-03-11T09:40:25;25.15;;;11.57;;
30896;SDS011;64229;52.246;21.054;2023-03-11T09:45:49;35.47;;;15.00;;
30896;SDS011;64229;52.246;21.054;2023-03-11T09:48:29;30.88;;;15.70;;
30896;SDS011;64229;52.246;21.054;2023-03-11T09:51:19;36.97;;;16.55;;
30896;SDS011;64229;52.246;21.054;2023-03-11T09:53:54;37.33;;;16.05;;
30896;SDS011;64229;52.246;21.054;2023-03-11T09:56:27;39.90;;;17.67;;
30896;SDS011;64229;52.246;21.054;2023-03-11T09:58:59;46.85;;;17.08;;
30896;SDS011;64229;52.246;21.054;2023-03-11T10:01:41;38.92;;;15.98;;
30896;SDS011;64229;52.246;21.054;2023-03-11T10:06:56;33.00;;;15.48;;
30896;SDS011;64229;52.246;21.054;2023-03-11T10:12:43;31.40;;;13.52;;
30896;SDS011;64229;52.246;21.054;2023-03-11T10:21:14;34.97;;;16.08;;
30896;SDS011;64229;52.246;21.054;2023-03-11T10:26:27;33.58;;;15.77;;
30896;SDS011;64229;52.246;21.054;2023-03-11T10:29:13;34.17;;;14.23;;
30896;SDS011;64229;52.246;21.054;2023-03-11T10:31:44;26.67;;;13.00;;
30896;SDS011;64229;52.246;21.054;2023-03-11T10:39:23;24.15;;;11.52;;
30896;SDS011;64229;52.246;21.054;2023-03-11T10:41:53;23.67;;;11.50;;
30896;SDS011;64229;52.246;21.054;2023-03-11T10:44:24;21.17;;;11.57;;
30896;SDS011;64229;52.246;21.054;2023-03-11T10:46:53;21.63;;;11.13;;
30896;SDS011;64229;52.246;21.054;2023-03-11T10:49:18;20.60;;;10.27;;
30896;SDS011;64229;52.246;21.054;2023-03-11T10:51:45;21.48;;;9.80;;
30896;SDS011;64229;52.246;21.054;2023-03-11T10:56:58;13.93;;;6.45;;
30896;SDS011;64229;52.246;21.054;2023-03-11T10:59:30;15.00;;;7.40;;
30896;SDS011;64229;52.246;21.054;2023-03-11T11:01:58;14.77;;;7.88;;
30896;SDS011;64229;52.246;21.054;2023-03-11T11:04:27;15.68;;;7.70;;
30896;SDS011;64229;52.246;21.054;2023-03-11T11:09:44;15.97;;;8.70;;
30896;SDS011;64229;52.246;21.054;2023-03-11T11:12:14;15.82;;;8.70;;
30896;SDS011;64229;52.246;21.054;2023-03-11T11:17:18;14.48;;;8.07;;
30896;SDS011;64229;52.246;21.054;2023-03-11T11:19:47;13.75;;;8.40;;
30896;SDS011;64229;52.246;21.054;2023-03-11T11:22:15;14.82;;;8.38;;
30896;SDS011;64229;52.246;21.054;2023-03-11T11:24:44;11.30;;;7.32;;
30896;SDS011;64229;52.246;21.054;2023-03-11T11:27:24;13.45;;;7.65;;
30896;SDS011;64229;52.246;21.054;2023-03-11T11:30:33;13.95;;;8.65;;
30896;SDS011;64229;52.246;21.054;2023-03-11T11:32:40;9.75;;;6.25;;
30896;SDS011;64229;52.246;21.054;2023-03-11T11:35:08;9.90;;;5.63;;
30896;SDS011;64229;52.246;21.054;2023-03-11T11:37:40;8.77;;;5.18;;
30896;SDS011;64229;52.246;21.054;2023-03-11T11:42:38;7.05;;;4.80;;
30896;SDS011;64229;52.246;21.054;2023-03-11T11:45:12;9.05;;;5.57;;
30896;SDS011;64229;52.246;21.054;2023-03-11T11:47:46;8.80;;;5.78;;
30896;SDS011;64229;52.246;21.054;2023-03-11T11:50:15;10.80;;;6.32;;
30896;SDS011;64229;52.246;21.054;2023-03-11T11:52:51;8.25;;;5.03;;
30896;SDS011;64229;52.246;21.054;2023-03-11T11:55:23;7.47;;;4.60;;
30896;SDS011;64229;52.246;21.054;2023-03-11T11:57:51;7.93;;;5.15;;
30896;SDS011;64229;52.246;21.054;2023-03-11T12:00:19;9.55;;;4.60;;
30896;SDS011;64229;52.246;21.054;2023-03-11T12:05:34;12.15;;;6.80;;
30896;SDS011;64229;52.246;21.054;2023-03-11T12:11:06;8.95;;;6.00;;
30896;SDS011;64229;52.246;21.054;2023-03-11T12:13:46;8.82;;;5.45;;
30896;SDS011;64229;52.246;21.054;2023-03-11T12:27:01;11.50;;;6.87;;
30896;SDS011;64229;52.246;21.054;2023-03-11T12:29:33;15.75;;;8.88;;
30896;SDS011;64229;52.246;21.054;2023-03-11T12:32:03;17.85;;;10.27;;
30896;SDS011;64229;52.246;21.054;2023-03-11T12:34:30;18.15;;;10.32;;
30896;SDS011;64229;52.246;21.054;2023-03-11T12:36:59;14.27;;;8.15;;
30896;SDS011;64229;52.246;21.054;2023-03-11T12:39:32;12.95;;;8.13;;
30896;SDS011;64229;52.246;21.054;2023-03-11T12:44:36;10.90;;;6.85;;
30896;SDS011;64229;52.246;21.054;2023-03-11T12:47:15;13.90;;;8.27;;
30896;SDS011;64229;52.246;21.054;2023-03-11T12:49:47;15.15;;;8.50;;
30896;SDS011;64229;52.246;21.054;2023-03-11T12:52:22;9.98;;;6.40;;
30896;SDS011;64229;52.246;21.054;2023-03-11T12:57:28;15.00;;;6.85;;
30896;SDS011;64229;52.246;21.054;2023-03-11T13:10:48;16.30;;;8.45;;
30896;SDS011;64229;52.246;21.054;2023-03-11T13:15:49;15.50;;;8.70;;
30896;SDS011;64229;52.246;21.054;2023-03-11T13:42:25;20.52;;;9.65;;
30896;SDS011;64229;52.246;21.054;2023-03-11T13:44:55;21.27;;;10.93;;
30896;SDS011;64229;52.246;21.054;2023-03-11T13:47:22;21.15;;;10.82;;
30896;SDS011;64229;52.246;21.054;2023-03-11T13:52:33;17.92;;;9.35;;
30896;SDS011;64229;52.246;21.054;2023-03-11T13:57:32;18.95;;;10.18;;
30896;SDS011;64229;52.246;21.054;2023-03-11T14:00:12;17.73;;;9.85;;
30896;SDS011;64229;52.246;21.054;2023-03-11T14:02:42;18.95;;;9.80;;
30896;SDS011;64229;52.246;21.054;2023-03-11T14:05:15;19.85;;;11.15;;
30896;SDS011;64229;52.246;21.054;2023-03-11T14:07:43;19.98;;;10.50;;
30896;SDS011;64229;52.246;21.054;2023-03-11T14:10:23;19.67;;;9.30;;
30896;SDS011;64229;52.246;21.054;2023-03-11T14:12:50;23.35;;;10.40;;
30896;SDS011;64229;52.246;21.054;2023-03-11T14:15:28;21.35;;;9.75;;
30896;SDS011;64229;52.246;21.054;2023-03-11T14:18:17;18.85;;;9.18;;
30896;SDS011;64229;52.246;21.054;2023-03-11T14:20:52;14.38;;;8.52;;
30896;SDS011;64229;52.246;21.054;2023-03-11T14:23:18;16.17;;;9.07;;
30896;SDS011;64229;52.246;21.054;2023-03-11T14:25:44;17.95;;;9.88;;
30896;SDS011;64229;52.246;21.054;2023-03-11T14:28:17;17.95;;;8.85;;
30896;SDS011;64229;52.246;21.054;2023-03-11T14:30:54;17.17;;;8.52;;
30896;SDS011;64229;52.246;21.054;2023-03-11T14:33:21;16.17;;;6.32;;
30896;SDS011;64229;52.246;21.054;2023-03-11T14:36:05;13.50;;;7.28;;
30896;SDS011;64229;52.246;21.054;2023-03-11T14:38:40;14.90;;;7.13;;
30896;SDS011;64229;52.246;21.054;2023-03-11T14:41:09;17.63;;;8.82;;
30896;SDS011;64229;52.246;21.054;2023-03-11T14:43:38;14.32;;;8.05;;
30896;SDS011;64229;52.246;21.054;2023-03-11T14:46:09;21.92;;;8.88;;
30896;SDS011;64229;52.246;21.054;2023-03-11T14:48:42;17.17;;;9.55;;
30896;SDS011;64229;52.246;21.054;2023-03-11T14:51:15;22.27;;;11.25;;
30896;SDS011;64229;52.246;21.054;2023-03-11T14:53:45;13.27;;;7.47;;
30896;SDS011;64229;52.246;21.054;2023-03-11T14:56:17;15.52;;;6.97;;
30896;SDS011;64229;52.246;21.054;2023-03-11T15:01:42;19.75;;;7.80;;
30896;SDS011;64229;52.246;21.054;2023-03-11T15:06:47;13.85;;;8.00;;
30896;SDS011;64229;52.246;21.054;2023-03-11T15:09:14;17.30;;;8.63;;
30896;SDS011;64229;52.246;21.054;2023-03-11T15:14:19;13.27;;;7.13;;
30896;SDS011;64229;52.246;21.054;2023-03-11T15:16:47;12.20;;;6.10;;
30896;SDS011;64229;52.246;21.054;2023-03-11T15:21:54;16.42;;;7.43;;
30896;SDS011;64229;52.246;21.054;2023-03-11T15:24:24;13.68;;;6.85;;
30896;SDS011;64229;52.246;21.054;2023-03-11T15:26:54;12.55;;;6.88;;
30896;SDS011;64229;52.246;21.054;2023-03-11T15:29:31;11.02;;;5.13;;
30896;SDS011;64229;52.246;21.054;2023-03-11T15:31:57;10.07;;;4.88;;
30896;SDS011;64229;52.246;21.054;2023-03-11T15:39:21;13.13;;;5.28;;
30896;SDS011;64229;52.246;21.054;2023-03-11T15:47:13;8.98;;;3.55;;
30896;SDS011;64229;52.246;21.054;2023-03-11T15:49:40;7.57;;;3.60;;
30896;SDS011;64229;52.246;21.054;2023-03-11T15:52:05;9.55;;;4.30;;
30896;SDS011;64229;52.246;21.054;2023-03-11T15:54:31;8.43;;;3.75;;
30896;SDS011;64229;52.246;21.054;2023-03-11T15:56:57;8.43;;;4.28;;
30896;SDS011;64229;52.246;21.054;2023-03-11T15:59:27;7.28;;;4.10;;
30896;SDS011;64229;52.246;21.054;2023-03-11T16:01:54;8.00;;;3.83;;
30896;SDS011;64229;52.246;21.054;2023-03-11T16:04:19;6.72;;;4.05;;
30896;SDS011;64229;52.246;21.054;2023-03-11T16:06:46;9.75;;;3.47;;
30896;SDS011;64229;52.246;21.054;2023-03-11T16:09:12;7.80;;;4.00;;
30896;SDS011;64229;52.246;21.054;2023-03-11T16:11:38;8.82;;;3.83;;
30896;SDS011;64229;52.246;21.054;2023-03-11T16:14:05;6.32;;;3.20;;
30896;SDS011;64229;52.246;21.054;2023-03-11T16:16:30;6.70;;;3.97;;
30896;SDS011;64229;52.246;21.054;2023-03-11T16:18:56;8.35;;;3.50;;
30896;SDS011;64229;52.246;21.054;2023-03-11T16:21:31;6.97;;;3.42;;
30896;SDS011;64229;52.246;21.054;2023-03-11T16:24:00;9.98;;;3.55;;
30896;SDS011;64229;52.246;21.054;2023-03-11T16:26:26;5.07;;;3.03;;
30896;SDS011;64229;52.246;21.054;2023-03-11T16:28:51;8.27;;;3.50;;
30896;SDS011;64229;52.246;21.054;2023-03-11T16:31:17;6.45;;;3.38;;
30896;SDS011;64229;52.246;21.054;2023-03-11T16:33:42;5.22;;;3.22;;
30896;SDS011;64229;52.246;21.054;2023-03-11T16:36:09;7.80;;;3.50;;
30896;SDS011;64229;52.246;21.054;2023-03-11T16:38:40;7.72;;;3.70;;
30896;SDS011;64229;52.246;21.054;2023-03-11T16:41:08;7.40;;;3.20;;
30896;SDS011;64229;52.246;21.054;2023-03-11T16:43:34;9.07;;;4.15;;
30896;SDS011;64229;52.246;21.054;2023-03-11T16:45:59;8.00;;;3.42;;
30896;SDS011;64229;52.246;21.054;2023-03-11T16:48:25;9.05;;;3.70;;
30896;SDS011;64229;52.246;21.054;2023-03-11T16:50:50;7.93;;;3.60;;
30896;SDS011;64229;52.246;21.054;2023-03-11T16:53:15;8.50;;;3.60;;
30896;SDS011;64229;52.246;21.054;2023-03-11T16:55:44;6.75;;;3.08;;
30896;SDS011;64229;52.246;21.054;2023-03-11T16:58:11;8.23;;;3.30;;
30896;SDS011;64229;52.246;21.054;2023-03-11T17:00:37;8.25;;;3.92;;
30896;SDS011;64229;52.246;21.054;2023-03-11T17:03:03;8.10;;;4.03;;
30896;SDS011;64229;52.246;21.054;2023-03-11T17:05:28;7.90;;;3.78;;
30896;SDS011;64229;52.246;21.054;2023-03-11T17:07:54;9.23;;;3.88;;
30896;SDS011;64229;52.246;21.054;2023-03-11T17:10:25;8.70;;;3.83;;
30896;SDS011;64229;52.246;21.054;2023-03-11T17:12:51;8.30;;;4.00;;
30896;SDS011;64229;52.246;21.054;2023-03-11T17:15:17;9.85;;;5.03;;
30896;SDS011;64229;52.246;21.054;2023-03-11T17:17:43;7.65;;;3.83;;
30896;SDS011;64229;52.246;21.054;2023-03-11T17:20:09;8.27;;;3.90;;
30896;SDS011;64229;52.246;21.054;2023-03-11T17:22:35;10.73;;;4.78;;
30896;SDS011;64229;52.246;21.054;2023-03-11T17:25:00;10.15;;;4.07;;
30896;SDS011;64229;52.246;21.054;2023-03-11T17:27:26;9.45;;;4.00;;
30896;SDS011;64229;52.246;21.054;2023-03-11T17:29:56;14.70;;;4.22;;
30896;SDS011;64229;52.246;21.054;2023-03-11T17:32:22;10.52;;;4.32;;
30896;SDS011;64229;52.246;21.054;2023-03-11T17:34:47;10.63;;;4.20;;
30896;SDS011;64229;52.246;21.054;2023-03-11T17:37:13;9.82;;;4.35;;
30896;SDS011;64229;52.246;21.054;2023-03-11T17:39:38;7.43;;;3.65;;
30896;SDS011;64229;52.246;21.054;2023-03-11T17:42:04;10.88;;;4.07;;
30896;SDS011;64229;52.246;21.054;2023-03-11T17:44:30;13.63;;;4.55;;
30896;SDS011;64229;52.246;21.054;2023-03-11T17:46:55;12.90;;;4.55;;
30896;SDS011;64229;52.246;21.054;2023-03-11T17:49:21;12.70;;;4.57;;
30896;SDS011;64229;52.246;21.054;2023-03-11T17:51:47;9.75;;;4.30;;
30896;SDS011;64229;52.246;21.054;2023-03-11T17:54:13;7.07;;;3.33;;
30896;SDS011;64229;52.246;21.054;2023-03-11T17:56:38;9.65;;;3.88;;
30896;SDS011;64229;52.246;21.054;2023-03-11T17:59:04;12.05;;;3.78;;
30896;SDS011;64229;52.246;21.054;2023-03-11T18:01:29;9.60;;;3.75;;
30896;SDS011;64229;52.246;21.054;2023-03-11T18:03:55;11.68;;;4.03;;
30896;SDS011;64229;52.246;21.054;2023-03-11T18:06:21;8.05;;;3.83;;
30896;SDS011;64229;52.246;21.054;2023-03-11T18:08:47;10.18;;;4.10;;
30896;SDS011;64229;52.246;21.054;2023-03-11T18:11:14;8.82;;;3.92;;
30896;SDS011;64229;52.246;21.054;2023-03-11T18:13:41;8.15;;;2.95;;
30896;SDS011;64229;52.246;21.054;2023-03-11T18:16:08;7.28;;;3.33;;
30896;SDS011;64229;52.246;21.054;2023-03-11T18:18:36;8.73;;;3.45;;
30896;SDS011;64229;52.246;21.054;2023-03-11T18:21:03;12.50;;;3.80;;
30896;SDS011;64229;52.246;21.054;2023-03-11T18:23:30;11.40;;;4.28;;
30896;SDS011;64229;52.246;21.054;2023-03-11T18:25:57;7.78;;;3.47;;
30896;SDS011;64229;52.246;21.054;2023-03-11T18:28:24;10.07;;;3.90;;
30896;SDS011;64229;52.246;21.054;2023-03-11T18:30:50;11.50;;;3.95;;
30896;SDS011;64229;52.246;21.054;2023-03-11T18:33:15;10.65;;;4.18;;
30896;SDS011;64229;52.246;21.054;2023-03-11T18:35:41;8.02;;;3.63;;
30896;SDS011;64229;52.246;21.054;2023-03-11T18:38:06;9.15;;;3.28;;
30896;SDS011;64229;52.246;21.054;2023-03-11T18:40:31;7.93;;;3.22;;
30896;SDS011;64229;52.246;21.054;2023-03-11T18:42:57;8.57;;;3.63;;
30896;SDS011;64229;52.246;21.054;2023-03-11T18:45:22;11.00;;;3.15;;
30896;SDS011;64229;52.246;21.054;2023-03-11T18:47:48;8.90;;;3.15;;
30896;SDS011;64229;52.246;21.054;2023-03-11T18:50:13;6.47;;;3.17;;
30896;SDS011;64229;52.246;21.054;2023-03-11T18:52:39;6.93;;;3.60;;
30896;SDS011;64229;52.246;21.054;2023-03-11T18:55:04;5.82;;;2.70;;
30896;SDS011;64229;52.246;21.054;2023-03-11T18:57:30;6.72;;;2.75;;
30896;SDS011;64229;52.246;21.054;2023-03-11T18:59:55;7.88;;;2.78;;
30896;SDS011;64229;52.246;21.054;2023-03-11T19:02:20;7.90;;;3.05;;
30896;SDS011;64229;52.246;21.054;2023-03-11T19:04:46;6.40;;;3.03;;
30896;SDS011;64229;52.246;21.054;2023-03-11T19:07:11;9.82;;;3.72;;
30896;SDS011;64229;52.246;21.054;2023-03-11T19:09:37;12.75;;;3.67;;
30896;SDS011;64229;52.246;21.054;2023-03-11T19:12:02;8.50;;;3.20;;
30896;SDS011;64229;52.246;21.054;2023-03-11T19:14:28;9.77;;;3.40;;
30896;SDS011;64229;52.246;21.054;2023-03-11T19:16:53;10.82;;;2.75;;
30896;SDS011;64229;52.246;21.054;2023-03-11T19:19:19;7.40;;;2.70;;
30896;SDS011;64229;52.246;21.054;2023-03-11T19:21:44;7.03;;;2.58;;
30896;SDS011;64229;52.246;21.054;2023-03-11T19:24:11;8.48;;;3.00;;
30896;SDS011;64229;52.246;21.054;2023-03-11T19:26:37;9.98;;;3.28;;
30896;SDS011;64229;52.246;21.054;2023-03-11T19:29:04;7.07;;;2.88;;
30896;SDS011;64229;52.246;21.054;2023-03-11T19:31:29;8.27;;;3.00;;
30896;SDS011;64229;52.246;21.054;2023-03-11T19:33:55;5.60;;;2.75;;
30896;SDS011;64229;52.246;21.054;2023-03-11T19:36:20;6.68;;;2.53;;
30896;SDS011;64229;52.246;21.054;2023-03-11T19:38:46;8.20;;;3.03;;
30896;SDS011;64229;52.246;21.054;2023-03-11T19:41:13;8.15;;;2.95;;
30896;SDS011;64229;52.246;21.054;2023-03-11T19:43:42;11.35;;;3.30;;
30896;SDS011;64229;52.246;21.054;2023-03-11T19:46:09;9.48;;;3.25;;
30896;SDS011;64229;52.246;21.054;2023-03-11T19:48:37;7.72;;;2.92;;
30896;SDS011;64229;52.246;21.054;2023-03-11T19:51:02;6.63;;;3.00;;
30896;SDS011;64229;52.246;21.054;2023-03-11T19:53:29;5.80;;;2.50;;
30896;SDS011;64229;52.246;21.054;2023-03-11T19:55:56;8.50;;;2.58;;
30896;SDS011;64229;52.246;21.054;2023-03-11T19:58:22;5.55;;;2.42;;
30896;SDS011;64229;52.246;21.054;2023-03-11T20:00:49;7.30;;;2.88;;
30896;SDS011;64229;52.246;21.054;2023-03-11T20:03:15;6.05;;;2.67;;
30896;SDS011;64229;52.246;21.054;2023-03-11T20:05:41;7.32;;;2.80;;
30896;SDS011;64229;52.246;21.054;2023-03-11T20:08:09;6.82;;;2.20;;
30896;SDS011;64229;52.246;21.054;2023-03-11T20:10:36;6.78;;;2.50;;
30896;SDS011;64229;52.246;21.054;2023-03-11T20:13:04;13.38;;;2.88;;
30896;SDS011;64229;52.246;21.054;2023-03-11T20:15:29;7.95;;;2.65;;
30896;SDS011;64229;52.246;21.054;2023-03-11T20:17:55;7.47;;;2.95;;
30896;SDS011;64229;52.246;21.054;2023-03-11T20:20:20;8.20;;;3.72;;
30896;SDS011;64229;52.246;21.054;2023-03-11T20:22:46;7.78;;;3.25;;
30896;SDS011;64229;52.246;21.054;2023-03-11T20:25:12;12.68;;;3.25;;
30896;SDS011;64229;52.246;21.054;2023-03-11T20:27:37;9.60;;;2.85;;
30896;SDS011;64229;52.246;21.054;2023-03-11T20:30:03;7.30;;;3.08;;
30896;SDS011;64229;52.246;21.054;2023-03-11T20:32:29;8.52;;;3.17;;
30896;SDS011;64229;52.246;21.054;2023-03-11T20:34:55;7.90;;;3.25;;
30896;SDS011;64229;52.246;21.054;2023-03-11T20:37:21;9.88;;;3.42;;
30896;SDS011;64229;52.246;21.054;2023-03-11T20:39:46;10.23;;;3.63;;
30896;SDS011;64229;52.246;21.054;2023-03-11T20:42:12;11.25;;;3.35;;
30896;SDS011;64229;52.246;21.054;2023-03-11T20:44:37;8.27;;;3.05;;
30896;SDS011;64229;52.246;21.054;2023-03-11T20:47:02;8.60;;;2.65;;
30896;SDS011;64229;52.246;21.054;2023-03-11T20:49:28;11.88;;;3.47;;
30896;SDS011;64229;52.246;21.054;2023-03-11T20:51:53;9.68;;;3.72;;
30896;SDS011;64229;52.246;21.054;2023-03-11T20:54:18;9.07;;;3.70;;
30896;SDS011;64229;52.246;21.054;2023-03-11T20:56:44;11.43;;;3.65;;
30896;SDS011;64229;52.246;21.054;2023-03-11T20:59:11;10.23;;;3.90;;
30896;SDS011;64229;52.246;21.054;2023-03-11T21:01:37;10.63;;;3.95;;
30896;SDS011;64229;52.246;21.054;2023-03-11T21:04:03;10.57;;;3.92;;
30896;SDS011;64229;52.246;21.054;2023-03-11T21:06:33;9.90;;;4.25;;
30896;SDS011;64229;52.246;21.054;2023-03-11T21:09:02;11.52;;;4.03;;
30896;SDS011;64229;52.246;21.054;2023-03-11T21:11:29;11.68;;;3.45;;
30896;SDS011;64229;52.246;21.054;2023-03-11T21:13:55;11.02;;;3.78;;
30896;SDS011;64229;52.246;21.054;2023-03-11T21:16:20;9.63;;;3.72;;
30896;SDS011;64229;52.246;21.054;2023-03-11T21:18:47;9.27;;;3.53;;
30896;SDS011;64229;52.246;21.054;2023-03-11T21:21:13;12.20;;;4.07;;
30896;SDS011;64229;52.246;21.054;2023-03-11T21:23:40;7.95;;;3.70;;
30896;SDS011;64229;52.246;21.054;2023-03-11T21:26:07;9.00;;;3.92;;
30896;SDS011;64229;52.246;21.054;2023-03-11T21:28:34;9.43;;;3.92;;
30896;SDS011;64229;52.246;21.054;2023-03-11T21:31:04;12.13;;;4.10;;
30896;SDS011;64229;52.246;21.054;2023-03-11T21:33:31;9.23;;;4.15;;
30896;SDS011;64229;52.246;21.054;2023-03-11T21:35:58;10.98;;;4.55;;
30896;SDS011;64229;52.246;21.054;2023-03-11T21:38:25;11.07;;;4.55;;
30896;SDS011;64229;52.246;21.054;2023-03-11T21:40:52;7.90;;;4.10;;